Impacts METAR Board
IDs:

KORD - Chicago/O'Hare Intl, IL, US

Updated at: 0400 UTC 18 Oct 2018
Potential Impact None Slight Moderate High
Time 17/16Z 17/17Z 17/18Z 17/19Z 17/20Z 17/21Z 17/22Z 17/23Z 18/00Z 18/01Z 18/02Z 18/03Z 18/04Z
Temp46 47 49 50 50 50 50 49 47 45 43 42 41
Dewpt28 29 30 28 26 23 23 23 24 27 27 28 28
Altim30.30 30.31 30.31 30.31 30.32 30.33 30.34 30.36 30.38 30.41 30.43 30.45 30.46
VIS10 10 10 10 10 10 10 10 10 10 10 10 10
CIG-- -- -- -- -- -- -- -- -- -- -- -- --
CoverFEWFEWFEWFEWFEWCLRCLRCLRCLRCLRCLRCLRCLR
FltCatVFRVFRVFRVFRVFRVFRVFRVFRVFRVFRVFRVFRVFR
WX--------------------------
WDir3303202902702902803003003102800260270
WSpd14 11 11 12 11 12 10 6 6 4 0 5 5
WGst21 -- 17 21 -- 19 18 -- -- -- -- -- --
Raw hourly METARs
KORD 171551Z 33014G21KT 10SM FEW040 08/M02 A3030 RMK AO2 SLP262 T00781022
KORD 171651Z 32011KT 10SM FEW042 08/M02 A3031 RMK AO2 SLP266 T00831017
KORD 171751Z 29011G17KT 10SM FEW040 09/M01 A3031 RMK AO2 SLP268 T00941011 10100 20050 51013
KORD 171851Z 27012G21KT 10SM FEW045 10/M02 A3031 RMK AO2 SLP268 T01001022
KORD 171951Z 29011KT 10SM FEW045 10/M03 A3032 RMK AO2 SLP271 T01001033
KORD 172051Z 28012G19KT 10SM CLR 10/M05 A3033 RMK AO2 SLP275 T01001050 53007
KORD 172151Z 30010G18KT 10SM CLR 10/M05 A3034 RMK AO2 SLP278 T01001050
KORD 172251Z 30006KT 10SM CLR 09/M05 A3036 RMK AO2 SLP282 T00941050
KORD 172351Z 31006KT 10SM CLR 08/M04 A3038 RMK AO2 SLP292 T00831044 10106 20083 53015
KORD 180051Z 28004KT 10SM CLR 07/M03 A3041 RMK AO2 SLP302 T00721028
KORD 180151Z 00000KT 10SM CLR 06/M03 A3043 RMK AO2 SLP308 T00611028
KORD 180251Z 26005KT 10SM CLR 06/M02 A3045 RMK AO2 SLP316 T00561022 51023
KORD 180351Z 27005KT 10SM CLR 05/M02 A3046 RMK AO2 SLP318 T00501022



Page loaded:  04:34 UTC  |   09:34 PM Pacific  |   10:34 PM Mountain  |   11:34 PM Central  |   12:34 AM Eastern

 

ADVISORIES

FORECASTS

FORECASTS

OBSERVATIONS

USER TOOLS

ABOUT US